Terminal Aerodrome Forecast
Issued by NWS

Home | Current Version | Previous Version | Text Only | Print | Product List | Glossary On
Versions: 1 2 3 4 5 6 7 8 9 10 11 12 13 14 15 16 17 18 19 20 21 22 23 24 25 26 27
000
FTUS41 KRNK 080520
TAFBCB
TAF
KBCB 080520Z 0806/0906 00000KT P6SM SCT250
     FM081000 VRB03KT P6SM BKN110
     FM081600 16005KT 6SM -RASN BR SCT030 OVC045
      TEMPO 0818/0822 3SM -SN BR OVC025
     FM082200 26010G20KT 6SM -SHSN OVC025
     FM090400 27015G25KT 4SM -SHSN OVC018=

USA.gov is the U.S. government's official web portal to all federal, state and local government web resources and services.